Portada
METAR-TAF:

METAR-TAF

Aeroports :

Changchun, Xina

latitud: 43-54N, longitud: 125-13E, altitud: 238 m

Observació

L'informe es va fer fa 27 minuts, a les 16:00 UTC
Vent 4 kt del Nord/Nord-Est, variant entre Nord-Oest i Nord-Est
Temperatura -7°C
Humitat 86%
Pressió 1015 hPa
Visibilitat: 2000 m
Escasses núvols a una alçada de 1000 ft
Cel cobert a una alçada de 2300 ft
neu, boirina

METAR: ZYCC 101600Z 02002MPS 320V050 2000 -SN BR FEW010 OVC023 M07/M09 Q1015 NOSIG

Hora: 00:27 (16:27 UTC)

Pronòstic

L'informe es va fer fa 9 hores i 26 minuts, a les 07:01 UTC
Pronòstic vàlid del 10 a les 12 UTC al 11 a les 12 UTC
Vent 6 kt del Nord
Visibilitat: 6000 m
Cel ennuvolat a una alçada de 2000 ft
Temporalment
l' 10 a les 12 UTC al 10 a les 18 UTC
Visibilitat: 2000 m
neu

TAF: ZYCC 100701Z 1012/1112 36003MPS 6000 BKN020 TXM06/06Z TNM12/22Z TEMPO 1012/1018 2000 -SN

Observacions i pronòstics meteorològics de més de 4000 aeroports (METAR i TAF).

Les estacions disponibles són els punts grocs i vermells al mapa.

Posi el ratolí al punt desitjat per veure el nom de l'estació.

Feu clic per veure les observacions i els pronòstics meteorològics.

Per canviar el mapa: feu clic els botons verds amb una creu de color negre per apropar; al botó verd amb un guió per allunyar la imatge; o en les fletxes verdes per a mapes adjacents.


METAR-TAF: